sensor_id;sensor_type;location;lat;lon;timestamp;P1;durP1;ratioP1;P2;durP2;ratioP2
68475;SDS011;55464;48.266;14.188;2023-10-09T00:01:49;2.22;;;1.48;;
68475;SDS011;55464;48.266;14.188;2023-10-09T00:04:16;3.38;;;1.65;;
68475;SDS011;55464;48.266;14.188;2023-10-09T00:06:42;1.23;;;1.13;;
68475;SDS011;55464;48.266;14.188;2023-10-09T00:09:08;6.32;;;1.25;;
68475;SDS011;55464;48.266;14.188;2023-10-09T00:11:58;3.33;;;1.23;;
68475;SDS011;55464;48.266;14.188;2023-10-09T00:14:25;3.25;;;1.20;;
68475;SDS011;55464;48.266;14.188;2023-10-09T00:16:55;3.40;;;1.00;;
68475;SDS011;55464;48.266;14.188;2023-10-09T00:19:41;1.30;;;0.95;;
68475;SDS011;55464;48.266;14.188;2023-10-09T00:22:08;2.63;;;1.15;;
68475;SDS011;55464;48.266;14.188;2023-10-09T00:24:50;0.90;;;0.90;;
68475;SDS011;55464;48.266;14.188;2023-10-09T00:27:38;3.63;;;1.38;;
68475;SDS011;55464;48.266;14.188;2023-10-09T00:30:08;1.38;;;1.00;;
68475;SDS011;55464;48.266;14.188;2023-10-09T00:32:36;1.40;;;1.30;;
68475;SDS011;55464;48.266;14.188;2023-10-09T00:35:02;3.08;;;1.10;;
68475;SDS011;55464;48.266;14.188;2023-10-09T00:37:48;1.20;;;1.00;;
68475;SDS011;55464;48.266;14.188;2023-10-09T00:40:16;0.88;;;0.88;;
68475;SDS011;55464;48.266;14.188;2023-10-09T00:42:52;2.05;;;0.98;;
68475;SDS011;55464;48.266;14.188;2023-10-09T00:45:20;1.65;;;1.20;;
68475;SDS011;55464;48.266;14.188;2023-10-09T00:47:53;1.27;;;0.90;;
68475;SDS011;55464;48.266;14.188;2023-10-09T00:50:24;0.73;;;0.73;;
68475;SDS011;55464;48.266;14.188;2023-10-09T00:52:52;0.98;;;0.98;;
68475;SDS011;55464;48.266;14.188;2023-10-09T00:55:33;1.27;;;1.17;;
68475;SDS011;55464;48.266;14.188;2023-10-09T00:58:09;0.82;;;0.80;;
68475;SDS011;55464;48.266;14.188;2023-10-09T01:00:43;0.73;;;0.73;;
68475;SDS011;55464;48.266;14.188;2023-10-09T01:03:09;1.27;;;1.00;;
68475;SDS011;55464;48.266;14.188;2023-10-09T01:05:44;8.48;;;1.42;;
68475;SDS011;55464;48.266;14.188;2023-10-09T01:08:18;2.38;;;1.10;;
68475;SDS011;55464;48.266;14.188;2023-10-09T01:11:03;0.82;;;0.82;;
68475;SDS011;55464;48.266;14.188;2023-10-09T01:13:35;1.50;;;1.00;;
68475;SDS011;55464;48.266;14.188;2023-10-09T01:16:07;2.03;;;1.30;;
68475;SDS011;55464;48.266;14.188;2023-10-09T01:18:41;2.58;;;1.25;;
68475;SDS011;55464;48.266;14.188;2023-10-09T01:21:12;1.65;;;1.38;;
68475;SDS011;55464;48.266;14.188;2023-10-09T01:23:42;5.07;;;1.40;;
68475;SDS011;55464;48.266;14.188;2023-10-09T01:26:27;2.20;;;1.60;;
68475;SDS011;55464;48.266;14.188;2023-10-09T01:29:05;1.45;;;1.35;;
68475;SDS011;55464;48.266;14.188;2023-10-09T01:31:35;1.48;;;1.35;;
68475;SDS011;55464;48.266;14.188;2023-10-09T01:34:10;1.60;;;1.30;;
68475;SDS011;55464;48.266;14.188;2023-10-09T01:36:37;1.40;;;1.27;;
68475;SDS011;55464;48.266;14.188;2023-10-09T01:39:06;1.45;;;1.35;;
68475;SDS011;55464;48.266;14.188;2023-10-09T01:41:54;2.03;;;1.33;;
68475;SDS011;55464;48.266;14.188;2023-10-09T01:44:31;1.60;;;1.50;;
68475;SDS011;55464;48.266;14.188;2023-10-09T01:47:03;1.60;;;1.50;;
68475;SDS011;55464;48.266;14.188;2023-10-09T01:49:42;1.33;;;1.23;;
68475;SDS011;55464;48.266;14.188;2023-10-09T01:52:08;3.90;;;1.60;;
68475;SDS011;55464;48.266;14.188;2023-10-09T01:54:37;1.80;;;1.67;;
68475;SDS011;55464;48.266;14.188;2023-10-09T01:57:05;1.50;;;1.40;;
68475;SDS011;55464;48.266;14.188;2023-10-09T01:59:35;1.45;;;1.30;;
68475;SDS011;55464;48.266;14.188;2023-10-09T02:02:08;1.73;;;1.63;;
68475;SDS011;55464;48.266;14.188;2023-10-09T02:04:57;3.72;;;2.08;;
68475;SDS011;55464;48.266;14.188;2023-10-09T02:07:37;2.05;;;1.80;;
68475;SDS011;55464;48.266;14.188;2023-10-09T02:12:46;1.77;;;1.67;;
68475;SDS011;55464;48.266;14.188;2023-10-09T02:15:28;1.70;;;1.48;;
68475;SDS011;55464;48.266;14.188;2023-10-09T02:18:10;1.40;;;1.30;;
68475;SDS011;55464;48.266;14.188;2023-10-09T02:23:31;3.53;;;1.50;;
68475;SDS011;55464;48.266;14.188;2023-10-09T02:26:09;5.75;;;1.75;;
68475;SDS011;55464;48.266;14.188;2023-10-09T02:28:44;2.58;;;2.13;;
68475;SDS011;55464;48.266;14.188;2023-10-09T02:31:17;1.42;;;1.33;;
68475;SDS011;55464;48.266;14.188;2023-10-09T02:33:46;1.40;;;1.30;;
68475;SDS011;55464;48.266;14.188;2023-10-09T02:36:15;1.50;;;1.40;;
68475;SDS011;55464;48.266;14.188;2023-10-09T02:38:40;1.48;;;1.30;;
68475;SDS011;55464;48.266;14.188;2023-10-09T02:41:07;3.35;;;1.80;;
68475;SDS011;55464;48.266;14.188;2023-10-09T02:43:39;1.67;;;1.58;;
68475;SDS011;55464;48.266;14.188;2023-10-09T02:46:14;2.30;;;1.45;;
68475;SDS011;55464;48.266;14.188;2023-10-09T02:48:49;2.35;;;1.73;;
68475;SDS011;55464;48.266;14.188;2023-10-09T02:51:25;2.25;;;1.70;;
68475;SDS011;55464;48.266;14.188;2023-10-09T02:54:09;2.97;;;1.85;;
68475;SDS011;55464;48.266;14.188;2023-10-09T02:56:51;2.00;;;1.65;;
68475;SDS011;55464;48.266;14.188;2023-10-09T02:59:22;1.70;;;1.60;;
68475;SDS011;55464;48.266;14.188;2023-10-09T03:01:48;2.03;;;1.67;;
68475;SDS011;55464;48.266;14.188;2023-10-09T03:04:15;1.67;;;1.58;;
68475;SDS011;55464;48.266;14.188;2023-10-09T03:06:41;1.77;;;1.67;;
68475;SDS011;55464;48.266;14.188;2023-10-09T03:09:18;2.00;;;1.77;;
68475;SDS011;55464;48.266;14.188;2023-10-09T03:11:52;1.92;;;1.70;;
68475;SDS011;55464;48.266;14.188;2023-10-09T03:14:21;2.63;;;2.00;;
68475;SDS011;55464;48.266;14.188;2023-10-09T03:16:51;1.88;;;1.77;;
68475;SDS011;55464;48.266;14.188;2023-10-09T03:19:17;2.45;;;1.90;;
68475;SDS011;55464;48.266;14.188;2023-10-09T03:21:43;2.15;;;1.80;;
68475;SDS011;55464;48.266;14.188;2023-10-09T03:24:09;3.05;;;2.05;;
68475;SDS011;55464;48.266;14.188;2023-10-09T03:26:36;2.83;;;1.92;;
68475;SDS011;55464;48.266;14.188;2023-10-09T03:29:02;3.35;;;2.13;;
68475;SDS011;55464;48.266;14.188;2023-10-09T03:31:36;2.45;;;2.25;;
68475;SDS011;55464;48.266;14.188;2023-10-09T03:34:03;3.10;;;2.30;;
68475;SDS011;55464;48.266;14.188;2023-10-09T03:36:29;2.40;;;2.20;;
68475;SDS011;55464;48.266;14.188;2023-10-09T03:38:59;2.78;;;1.73;;
68475;SDS011;55464;48.266;14.188;2023-10-09T03:41:25;2.58;;;1.75;;
68475;SDS011;55464;48.266;14.188;2023-10-09T03:43:54;2.35;;;2.15;;
68475;SDS011;55464;48.266;14.188;2023-10-09T03:46:20;2.47;;;2.20;;
68475;SDS011;55464;48.266;14.188;2023-10-09T03:48:48;3.33;;;1.98;;
68475;SDS011;55464;48.266;14.188;2023-10-09T03:51:14;5.03;;;1.67;;
68475;SDS011;55464;48.266;14.188;2023-10-09T03:53:51;3.03;;;2.00;;
68475;SDS011;55464;48.266;14.188;2023-10-09T03:56:20;3.67;;;2.22;;
68475;SDS011;55464;48.266;14.188;2023-10-09T03:58:49;3.40;;;2.20;;
68475;SDS011;55464;48.266;14.188;2023-10-09T04:01:18;1.80;;;1.70;;
68475;SDS011;55464;48.266;14.188;2023-10-09T04:03:53;4.55;;;1.70;;
68475;SDS011;55464;48.266;14.188;2023-10-09T04:06:28;2.40;;;1.85;;
68475;SDS011;55464;48.266;14.188;2023-10-09T04:09:04;2.65;;;1.70;;
68475;SDS011;55464;48.266;14.188;2023-10-09T04:11:52;4.78;;;1.80;;
68475;SDS011;55464;48.266;14.188;2023-10-09T04:14:36;2.55;;;1.70;;
68475;SDS011;55464;48.266;14.188;2023-10-09T04:17:16;2.35;;;2.03;;
68475;SDS011;55464;48.266;14.188;2023-10-09T04:19:47;1.80;;;1.70;;
68475;SDS011;55464;48.266;14.188;2023-10-09T04:22:13;2.05;;;1.80;;
68475;SDS011;55464;48.266;14.188;2023-10-09T04:24:52;3.15;;;1.55;;
68475;SDS011;55464;48.266;14.188;2023-10-09T04:27:17;2.85;;;1.70;;
68475;SDS011;55464;48.266;14.188;2023-10-09T04:29:51;3.95;;;1.88;;
68475;SDS011;55464;48.266;14.188;2023-10-09T04:32:20;7.18;;;1.70;;
68475;SDS011;55464;48.266;14.188;2023-10-09T04:34:50;1.63;;;1.52;;
68475;SDS011;55464;48.266;14.188;2023-10-09T04:37:36;2.08;;;1.80;;
68475;SDS011;55464;48.266;14.188;2023-10-09T04:40:03;1.88;;;1.55;;
68475;SDS011;55464;48.266;14.188;2023-10-09T04:42:52;2.03;;;1.63;;
68475;SDS011;55464;48.266;14.188;2023-10-09T04:45:24;2.30;;;1.63;;
68475;SDS011;55464;48.266;14.188;2023-10-09T04:48:08;3.22;;;1.80;;
68475;SDS011;55464;48.266;14.188;2023-10-09T04:50:34;3.00;;;1.90;;
68475;SDS011;55464;48.266;14.188;2023-10-09T04:53:01;3.08;;;1.90;;
68475;SDS011;55464;48.266;14.188;2023-10-09T04:55:42;2.15;;;1.77;;
68475;SDS011;55464;48.266;14.188;2023-10-09T04:58:26;18.33;;;8.98;;
68475;SDS011;55464;48.266;14.188;2023-10-09T05:00:55;11.98;;;7.25;;
68475;SDS011;55464;48.266;14.188;2023-10-09T05:03:23;5.22;;;3.03;;
68475;SDS011;55464;48.266;14.188;2023-10-09T05:06:09;6.55;;;4.00;;
68475;SDS011;55464;48.266;14.188;2023-10-09T05:09:07;4.45;;;3.25;;
68475;SDS011;55464;48.266;14.188;2023-10-09T05:11:38;8.15;;;4.57;;
68475;SDS011;55464;48.266;14.188;2023-10-09T05:14:16;14.43;;;7.53;;
68475;SDS011;55464;48.266;14.188;2023-10-09T05:16:42;16.77;;;6.95;;
68475;SDS011;55464;48.266;14.188;2023-10-09T05:19:23;9.40;;;4.85;;
68475;SDS011;55464;48.266;14.188;2023-10-09T05:22:06;5.65;;;3.55;;
68475;SDS011;55464;48.266;14.188;2023-10-09T05:24:41;7.25;;;4.68;;
68475;SDS011;55464;48.266;14.188;2023-10-09T05:27:09;8.43;;;5.75;;
68475;SDS011;55464;48.266;14.188;2023-10-09T05:29:42;4.32;;;3.30;;
68475;SDS011;55464;48.266;14.188;2023-10-09T05:32:24;2.35;;;1.98;;
68475;SDS011;55464;48.266;14.188;2023-10-09T05:35:00;6.47;;;3.95;;
68475;SDS011;55464;48.266;14.188;2023-10-09T05:37:26;10.25;;;5.82;;
68475;SDS011;55464;48.266;14.188;2023-10-09T05:39:59;6.65;;;4.35;;
68475;SDS011;55464;48.266;14.188;2023-10-09T05:42:32;5.38;;;3.70;;
68475;SDS011;55464;48.266;14.188;2023-10-09T05:45:07;4.85;;;3.75;;
68475;SDS011;55464;48.266;14.188;2023-10-09T05:47:46;6.05;;;3.10;;
68475;SDS011;55464;48.266;14.188;2023-10-09T05:50:22;4.53;;;3.30;;
68475;SDS011;55464;48.266;14.188;2023-10-09T05:52:49;5.28;;;2.40;;
68475;SDS011;55464;48.266;14.188;2023-10-09T05:55:24;3.33;;;2.17;;
68475;SDS011;55464;48.266;14.188;2023-10-09T05:58:09;10.80;;;2.85;;
68475;SDS011;55464;48.266;14.188;2023-10-09T06:00:53;3.97;;;2.50;;
68475;SDS011;55464;48.266;14.188;2023-10-09T06:03:31;5.10;;;2.70;;
68475;SDS011;55464;48.266;14.188;2023-10-09T06:06:15;3.80;;;2.22;;
68475;SDS011;55464;48.266;14.188;2023-10-09T06:09:07;4.13;;;2.10;;
68475;SDS011;55464;48.266;14.188;2023-10-09T06:11:46;4.93;;;1.95;;
68475;SDS011;55464;48.266;14.188;2023-10-09T06:14:22;1.83;;;1.60;;
68475;SDS011;55464;48.266;14.188;2023-10-09T06:17:10;3.00;;;1.50;;
68475;SDS011;55464;48.266;14.188;2023-10-09T06:19:36;4.75;;;2.35;;
68475;SDS011;55464;48.266;14.188;2023-10-09T06:22:14;4.28;;;3.00;;
68475;SDS011;55464;48.266;14.188;2023-10-09T06:24:58;4.68;;;2.97;;
68475;SDS011;55464;48.266;14.188;2023-10-09T06:27:33;4.57;;;2.90;;
68475;SDS011;55464;48.266;14.188;2023-10-09T06:29:59;4.13;;;2.97;;
68475;SDS011;55464;48.266;14.188;2023-10-09T06:32:49;5.10;;;3.42;;
68475;SDS011;55464;48.266;14.188;2023-10-09T06:35:33;5.90;;;3.60;;
68475;SDS011;55464;48.266;14.188;2023-10-09T06:38:00;6.35;;;3.50;;
68475;SDS011;55464;48.266;14.188;2023-10-09T06:40:30;4.95;;;3.78;;
68475;SDS011;55464;48.266;14.188;2023-10-09T06:43:16;3.90;;;2.83;;
68475;SDS011;55464;48.266;14.188;2023-10-09T06:46:01;5.63;;;3.55;;
68475;SDS011;55464;48.266;14.188;2023-10-09T06:48:45;8.30;;;3.92;;
68475;SDS011;55464;48.266;14.188;2023-10-09T06:51:20;5.88;;;4.30;;
68475;SDS011;55464;48.266;14.188;2023-10-09T06:53:49;5.22;;;4.07;;
68475;SDS011;55464;48.266;14.188;2023-10-09T06:56:18;4.43;;;3.63;;
68475;SDS011;55464;48.266;14.188;2023-10-09T06:58:55;5.03;;;4.13;;
68475;SDS011;55464;48.266;14.188;2023-10-09T07:01:40;6.05;;;4.40;;
68475;SDS011;55464;48.266;14.188;2023-10-09T07:04:09;10.50;;;4.40;;
68475;SDS011;55464;48.266;14.188;2023-10-09T07:06:44;5.30;;;4.13;;
68475;SDS011;55464;48.266;14.188;2023-10-09T07:09:22;6.43;;;4.85;;
68475;SDS011;55464;48.266;14.188;2023-10-09T07:11:51;7.15;;;4.32;;
68475;SDS011;55464;48.266;14.188;2023-10-09T07:14:18;5.77;;;4.33;;
68475;SDS011;55464;48.266;14.188;2023-10-09T07:17:03;9.88;;;4.13;;
68475;SDS011;55464;48.266;14.188;2023-10-09T07:19:45;6.35;;;3.80;;
68475;SDS011;55464;48.266;14.188;2023-10-09T07:22:12;7.35;;;4.47;;
68475;SDS011;55464;48.266;14.188;2023-10-09T07:27:22;5.97;;;4.18;;
68475;SDS011;55464;48.266;14.188;2023-10-09T07:30:07;11.70;;;4.40;;
68475;SDS011;55464;48.266;14.188;2023-10-09T07:32:54;5.47;;;4.13;;
68475;SDS011;55464;48.266;14.188;2023-10-09T07:35:36;5.90;;;4.82;;
68475;SDS011;55464;48.266;14.188;2023-10-09T07:38:16;6.10;;;4.15;;
68475;SDS011;55464;48.266;14.188;2023-10-09T07:40:47;6.18;;;4.25;;
68475;SDS011;55464;48.266;14.188;2023-10-09T07:43:34;4.90;;;3.95;;
68475;SDS011;55464;48.266;14.188;2023-10-09T07:46:07;6.03;;;4.28;;
68475;SDS011;55464;48.266;14.188;2023-10-09T07:48:53;5.13;;;4.13;;
68475;SDS011;55464;48.266;14.188;2023-10-09T07:51:20;6.43;;;4.13;;
68475;SDS011;55464;48.266;14.188;2023-10-09T07:53:56;5.75;;;4.13;;
68475;SDS011;55464;48.266;14.188;2023-10-09T07:56:25;6.20;;;4.22;;
68475;SDS011;55464;48.266;14.188;2023-10-09T07:58:55;6.03;;;4.15;;
68475;SDS011;55464;48.266;14.188;2023-10-09T08:01:25;7.93;;;5.05;;
68475;SDS011;55464;48.266;14.188;2023-10-09T08:03:53;5.03;;;4.18;;
68475;SDS011;55464;48.266;14.188;2023-10-09T08:06:39;6.28;;;4.20;;
68475;SDS011;55464;48.266;14.188;2023-10-09T08:09:09;5.95;;;5.00;;
68475;SDS011;55464;48.266;14.188;2023-10-09T08:11:38;8.40;;;4.80;;
68475;SDS011;55464;48.266;14.188;2023-10-09T08:14:12;5.93;;;4.25;;
68475;SDS011;55464;48.266;14.188;2023-10-09T08:16:48;8.43;;;4.50;;
68475;SDS011;55464;48.266;14.188;2023-10-09T08:19:16;6.78;;;4.68;;
68475;SDS011;55464;48.266;14.188;2023-10-09T08:21:58;8.75;;;4.30;;
68475;SDS011;55464;48.266;14.188;2023-10-09T08:25:02;7.10;;;4.00;;
68475;SDS011;55464;48.266;14.188;2023-10-09T08:27:28;6.82;;;4.13;;
68475;SDS011;55464;48.266;14.188;2023-10-09T08:29:55;4.63;;;3.85;;
68475;SDS011;55464;48.266;14.188;2023-10-09T08:32:40;3.67;;;2.92;;
68475;SDS011;55464;48.266;14.188;2023-10-09T08:35:07;7.75;;;4.20;;
68475;SDS011;55464;48.266;14.188;2023-10-09T08:37:58;12.80;;;3.90;;
68475;SDS011;55464;48.266;14.188;2023-10-09T08:40:31;5.47;;;3.15;;
68475;SDS011;55464;48.266;14.188;2023-10-09T08:45:48;5.22;;;3.25;;
68475;SDS011;55464;48.266;14.188;2023-10-09T08:48:18;4.82;;;3.60;;
68475;SDS011;55464;48.266;14.188;2023-10-09T08:50:46;8.02;;;3.55;;
68475;SDS011;55464;48.266;14.188;2023-10-09T08:53:14;3.97;;;2.60;;
68475;SDS011;55464;48.266;14.188;2023-10-09T08:55:41;7.15;;;2.60;;
68475;SDS011;55464;48.266;14.188;2023-10-09T08:58:08;5.10;;;3.13;;
68475;SDS011;55464;48.266;14.188;2023-10-09T09:00:44;5.93;;;3.00;;
68475;SDS011;55464;48.266;14.188;2023-10-09T09:03:16;9.18;;;3.20;;
68475;SDS011;55464;48.266;14.188;2023-10-09T09:05:46;6.75;;;3.53;;
68475;SDS011;55464;48.266;14.188;2023-10-09T09:08:23;4.95;;;3.22;;
68475;SDS011;55464;48.266;14.188;2023-10-09T09:10:51;6.82;;;3.08;;
68475;SDS011;55464;48.266;14.188;2023-10-09T09:14:04;6.38;;;3.38;;
68475;SDS011;55464;48.266;14.188;2023-10-09T09:16:31;8.98;;;4.05;;
68475;SDS011;55464;48.266;14.188;2023-10-09T09:19:01;7.60;;;4.28;;
68475;SDS011;55464;48.266;14.188;2023-10-09T09:21:30;9.88;;;3.65;;
68475;SDS011;55464;48.266;14.188;2023-10-09T09:24:03;13.05;;;3.85;;
68475;SDS011;55464;48.266;14.188;2023-10-09T09:26:52;7.70;;;3.33;;
68475;SDS011;55464;48.266;14.188;2023-10-09T09:32:01;8.80;;;3.72;;
68475;SDS011;55464;48.266;14.188;2023-10-09T09:34:45;11.10;;;3.88;;
68475;SDS011;55464;48.266;14.188;2023-10-09T09:37:22;9.82;;;3.83;;
68475;SDS011;55464;48.266;14.188;2023-10-09T09:39:53;9.65;;;3.72;;
68475;SDS011;55464;48.266;14.188;2023-10-09T09:42:21;11.73;;;3.78;;
68475;SDS011;55464;48.266;14.188;2023-10-09T09:44:52;16.80;;;4.57;;
68475;SDS011;55464;48.266;14.188;2023-10-09T09:47:18;10.85;;;4.35;;
68475;SDS011;55464;48.266;14.188;2023-10-09T09:49:52;8.63;;;3.67;;
68475;SDS011;55464;48.266;14.188;2023-10-09T09:52:33;10.05;;;4.40;;
68475;SDS011;55464;48.266;14.188;2023-10-09T09:55:06;10.90;;;3.70;;
68475;SDS011;55464;48.266;14.188;2023-10-09T09:57:41;8.48;;;3.72;;
68475;SDS011;55464;48.266;14.188;2023-10-09T10:00:10;9.90;;;3.80;;
68475;SDS011;55464;48.266;14.188;2023-10-09T10:03:00;7.88;;;3.00;;
68475;SDS011;55464;48.266;14.188;2023-10-09T10:05:31;9.38;;;3.72;;
68475;SDS011;55464;48.266;14.188;2023-10-09T10:07:58;15.77;;;4.68;;
68475;SDS011;55464;48.266;14.188;2023-10-09T10:10:37;12.65;;;3.50;;
68475;SDS011;55464;48.266;14.188;2023-10-09T10:13:12;10.50;;;3.33;;
68475;SDS011;55464;48.266;14.188;2023-10-09T10:18:23;15.02;;;4.18;;
68475;SDS011;55464;48.266;14.188;2023-10-09T10:24:40;15.75;;;4.90;;
68475;SDS011;55464;48.266;14.188;2023-10-09T10:35:19;19.73;;;4.22;;
68475;SDS011;55464;48.266;14.188;2023-10-09T10:38:27;13.73;;;4.57;;
68475;SDS011;55464;48.266;14.188;2023-10-09T10:41:11;17.13;;;4.28;;
68475;SDS011;55464;48.266;14.188;2023-10-09T10:43:50;14.52;;;5.07;;
68475;SDS011;55464;48.266;14.188;2023-10-09T10:46:15;16.08;;;4.85;;
68475;SDS011;55464;48.266;14.188;2023-10-09T10:49:10;13.57;;;4.35;;
68475;SDS011;55464;48.266;14.188;2023-10-09T10:51:46;15.85;;;4.50;;
68475;SDS011;55464;48.266;14.188;2023-10-09T10:54:21;17.90;;;4.20;;
68475;SDS011;55464;48.266;14.188;2023-10-09T10:56:57;17.98;;;4.10;;
68475;SDS011;55464;48.266;14.188;2023-10-09T10:59:23;17.60;;;4.38;;
68475;SDS011;55464;48.266;14.188;2023-10-09T11:01:50;13.43;;;4.63;;
68475;SDS011;55464;48.266;14.188;2023-10-09T11:04:26;16.77;;;4.15;;
68475;SDS011;55464;48.266;14.188;2023-10-09T11:06:59;7.63;;;3.90;;
68475;SDS011;55464;48.266;14.188;2023-10-09T11:12:51;12.15;;;4.25;;
68475;SDS011;55464;48.266;14.188;2023-10-09T11:15:31;14.30;;;4.55;;
68475;SDS011;55464;48.266;14.188;2023-10-09T11:18:22;19.42;;;4.68;;
68475;SDS011;55464;48.266;14.188;2023-10-09T11:20:56;14.82;;;3.65;;
68475;SDS011;55464;48.266;14.188;2023-10-09T11:23:29;15.52;;;3.65;;
68475;SDS011;55464;48.266;14.188;2023-10-09T11:26:04;19.17;;;4.30;;
68475;SDS011;55464;48.266;14.188;2023-10-09T11:34:27;18.10;;;4.00;;
68475;SDS011;55464;48.266;14.188;2023-10-09T11:37:23;20.13;;;3.72;;
68475;SDS011;55464;48.266;14.188;2023-10-09T11:39:55;17.48;;;3.92;;
68475;SDS011;55464;48.266;14.188;2023-10-09T11:45:20;11.23;;;3.42;;
68475;SDS011;55464;48.266;14.188;2023-10-09T11:47:50;14.10;;;3.90;;
68475;SDS011;55464;48.266;14.188;2023-10-09T11:53:12;12.57;;;4.00;;
68475;SDS011;55464;48.266;14.188;2023-10-09T11:55:49;13.98;;;3.58;;
68475;SDS011;55464;48.266;14.188;2023-10-09T11:58:17;20.05;;;4.82;;
68475;SDS011;55464;48.266;14.188;2023-10-09T12:03:16;19.52;;;4.68;;
68475;SDS011;55464;48.266;14.188;2023-10-09T12:05:46;11.80;;;3.90;;
68475;SDS011;55464;48.266;14.188;2023-10-09T12:08:12;8.50;;;3.90;;
68475;SDS011;55464;48.266;14.188;2023-10-09T12:10:41;11.70;;;4.43;;
68475;SDS011;55464;48.266;14.188;2023-10-09T12:13:07;19.17;;;4.68;;
68475;SDS011;55464;48.266;14.188;2023-10-09T12:15:33;14.82;;;4.25;;
68475;SDS011;55464;48.266;14.188;2023-10-09T12:18:05;11.63;;;4.35;;
68475;SDS011;55464;48.266;14.188;2023-10-09T12:20:39;19.13;;;4.28;;
68475;SDS011;55464;48.266;14.188;2023-10-09T12:23:06;10.95;;;3.47;;
68475;SDS011;55464;48.266;14.188;2023-10-09T12:25:32;23.58;;;4.57;;
68475;SDS011;55464;48.266;14.188;2023-10-09T12:28:00;18.13;;;4.07;;
68475;SDS011;55464;48.266;14.188;2023-10-09T12:30:30;13.00;;;3.83;;
68475;SDS011;55464;48.266;14.188;2023-10-09T12:32:56;12.95;;;4.40;;
68475;SDS011;55464;48.266;14.188;2023-10-09T12:35:26;14.43;;;3.88;;
68475;SDS011;55464;48.266;14.188;2023-10-09T12:40:22;12.38;;;4.07;;
68475;SDS011;55464;48.266;14.188;2023-10-09T12:42:54;11.05;;;3.90;;
68475;SDS011;55464;48.266;14.188;2023-10-09T12:45:24;15.68;;;3.95;;
68475;SDS011;55464;48.266;14.188;2023-10-09T12:47:57;16.33;;;4.93;;
68475;SDS011;55464;48.266;14.188;2023-10-09T12:50:33;9.65;;;4.30;;
68475;SDS011;55464;48.266;14.188;2023-10-09T12:52:59;14.15;;;3.75;;
68475;SDS011;55464;48.266;14.188;2023-10-09T12:55:34;13.02;;;3.90;;
68475;SDS011;55464;48.266;14.188;2023-10-09T12:58:03;18.17;;;4.30;;
68475;SDS011;55464;48.266;14.188;2023-10-09T13:00:31;13.55;;;4.88;;
68475;SDS011;55464;48.266;14.188;2023-10-09T13:02:58;14.25;;;4.05;;
68475;SDS011;55464;48.266;14.188;2023-10-09T13:05:26;13.38;;;4.72;;
68475;SDS011;55464;48.266;14.188;2023-10-09T13:07:52;10.02;;;3.60;;
68475;SDS011;55464;48.266;14.188;2023-10-09T13:10:20;16.65;;;4.38;;
68475;SDS011;55464;48.266;14.188;2023-10-09T13:12:48;14.30;;;4.90;;
68475;SDS011;55464;48.266;14.188;2023-10-09T13:15:20;17.95;;;3.97;;
68475;SDS011;55464;48.266;14.188;2023-10-09T13:17:46;15.18;;;4.25;;
68475;SDS011;55464;48.266;14.188;2023-10-09T13:20:12;16.23;;;3.90;;
68475;SDS011;55464;48.266;14.188;2023-10-09T13:22:38;16.25;;;4.88;;
68475;SDS011;55464;48.266;14.188;2023-10-09T13:25:08;11.60;;;4.60;;
68475;SDS011;55464;48.266;14.188;2023-10-09T13:27:40;18.08;;;4.32;;
68475;SDS011;55464;48.266;14.188;2023-10-09T13:30:06;13.65;;;4.38;;
68475;SDS011;55464;48.266;14.188;2023-10-09T13:32:34;15.43;;;4.43;;
68475;SDS011;55464;48.266;14.188;2023-10-09T13:35:03;17.40;;;4.32;;
68475;SDS011;55464;48.266;14.188;2023-10-09T13:37:31;14.55;;;4.82;;
68475;SDS011;55464;48.266;14.188;2023-10-09T13:40:02;11.73;;;4.05;;
68475;SDS011;55464;48.266;14.188;2023-10-09T13:42:35;9.25;;;4.00;;
68475;SDS011;55464;48.266;14.188;2023-10-09T13:45:02;15.35;;;4.00;;
68475;SDS011;55464;48.266;14.188;2023-10-09T13:47:41;11.63;;;5.18;;
68475;SDS011;55464;48.266;14.188;2023-10-09T13:50:09;11.23;;;4.32;;
68475;SDS011;55464;48.266;14.188;2023-10-09T13:52:35;11.93;;;4.60;;
68475;SDS011;55464;48.266;14.188;2023-10-09T13:55:04;18.58;;;4.72;;
68475;SDS011;55464;48.266;14.188;2023-10-09T13:57:40;10.77;;;4.95;;
68475;SDS011;55464;48.266;14.188;2023-10-09T14:00:11;15.30;;;5.47;;
68475;SDS011;55464;48.266;14.188;2023-10-09T14:02:45;8.85;;;4.35;;
68475;SDS011;55464;48.266;14.188;2023-10-09T14:05:11;13.57;;;3.35;;
68475;SDS011;55464;48.266;14.188;2023-10-09T14:07:39;13.07;;;3.88;;
68475;SDS011;55464;48.266;14.188;2023-10-09T14:10:06;12.30;;;4.70;;
68475;SDS011;55464;48.266;14.188;2023-10-09T14:12:42;14.10;;;4.78;;
68475;SDS011;55464;48.266;14.188;2023-10-09T14:15:09;13.57;;;4.32;;
68475;SDS011;55464;48.266;14.188;2023-10-09T14:17:42;11.52;;;4.13;;
68475;SDS011;55464;48.266;14.188;2023-10-09T14:20:08;14.88;;;4.50;;
68475;SDS011;55464;48.266;14.188;2023-10-09T14:23:12;11.13;;;3.97;;
68475;SDS011;55464;48.266;14.188;2023-10-09T14:25:45;12.07;;;4.10;;
68475;SDS011;55464;48.266;14.188;2023-10-09T14:28:14;13.07;;;4.53;;
68475;SDS011;55464;48.266;14.188;2023-10-09T14:30:44;14.93;;;4.45;;
68475;SDS011;55464;48.266;14.188;2023-10-09T14:33:12;16.13;;;4.28;;
68475;SDS011;55464;48.266;14.188;2023-10-09T14:35:40;12.48;;;4.47;;
68475;SDS011;55464;48.266;14.188;2023-10-09T14:38:07;9.10;;;4.15;;
68475;SDS011;55464;48.266;14.188;2023-10-09T14:40:44;17.27;;;4.80;;
68475;SDS011;55464;48.266;14.188;2023-10-09T14:43:10;12.23;;;4.72;;
68475;SDS011;55464;48.266;14.188;2023-10-09T14:45:46;12.00;;;4.28;;
68475;SDS011;55464;48.266;14.188;2023-10-09T14:48:15;10.80;;;4.65;;
68475;SDS011;55464;48.266;14.188;2023-10-09T14:50:49;13.45;;;4.93;;
68475;SDS011;55464;48.266;14.188;2023-10-09T14:53:18;18.45;;;7.03;;
68475;SDS011;55464;48.266;14.188;2023-10-09T14:55:45;17.17;;;4.75;;
68475;SDS011;55464;48.266;14.188;2023-10-09T14:58:12;13.65;;;4.82;;
68475;SDS011;55464;48.266;14.188;2023-10-09T15:00:38;18.30;;;5.00;;
68475;SDS011;55464;48.266;14.188;2023-10-09T15:03:12;13.45;;;4.40;;
68475;SDS011;55464;48.266;14.188;2023-10-09T15:05:43;14.45;;;5.38;;
68475;SDS011;55464;48.266;14.188;2023-10-09T15:08:08;18.60;;;5.63;;
68475;SDS011;55464;48.266;14.188;2023-10-09T15:10:44;16.77;;;4.20;;
68475;SDS011;55464;48.266;14.188;2023-10-09T15:13:13;14.18;;;4.13;;
68475;SDS011;55464;48.266;14.188;2023-10-09T15:15:41;10.35;;;3.97;;
68475;SDS011;55464;48.266;14.188;2023-10-09T15:18:10;12.30;;;3.85;;
68475;SDS011;55464;48.266;14.188;2023-10-09T15:20:39;14.57;;;3.80;;
68475;SDS011;55464;48.266;14.188;2023-10-09T15:23:05;10.82;;;3.97;;
68475;SDS011;55464;48.266;14.188;2023-10-09T15:25:31;13.05;;;4.07;;
68475;SDS011;55464;48.266;14.188;2023-10-09T15:27:59;12.52;;;4.28;;
68475;SDS011;55464;48.266;14.188;2023-10-09T15:30:25;12.77;;;5.10;;
68475;SDS011;55464;48.266;14.188;2023-10-09T15:32:53;15.88;;;4.95;;
68475;SDS011;55464;48.266;14.188;2023-10-09T15:35:21;12.55;;;4.10;;
68475;SDS011;55464;48.266;14.188;2023-10-09T15:37:47;15.52;;;4.93;;
68475;SDS011;55464;48.266;14.188;2023-10-09T15:40:16;20.65;;;4.75;;
68475;SDS011;55464;48.266;14.188;2023-10-09T15:42:43;18.63;;;4.50;;
68475;SDS011;55464;48.266;14.188;2023-10-09T15:45:14;16.73;;;4.55;;
68475;SDS011;55464;48.266;14.188;2023-10-09T15:47:40;10.10;;;4.57;;
68475;SDS011;55464;48.266;14.188;2023-10-09T15:50:10;10.20;;;3.55;;
68475;SDS011;55464;48.266;14.188;2023-10-09T15:52:37;18.77;;;4.35;;